createdAt,value
2023-02-08T00:02:39.693Z,101271.15
2023-02-08T00:07:41.679Z,101277.95
2023-02-08T00:12:52.259Z,101275.84
2023-02-08T00:17:53.937Z,101270.66
2023-02-08T00:22:56.210Z,101264.11
2023-02-08T00:27:57.918Z,101273.32
2023-02-08T00:33:01.325Z,101270.45
2023-02-08T00:38:03.654Z,101274.87
2023-02-08T00:43:06.887Z,101268.83
2023-02-08T00:48:09.950Z,101267.58
2023-02-08T00:53:12.150Z,101265.13
2023-02-08T00:58:13.772Z,101263.30
2023-02-08T01:03:15.541Z,101256.02
2023-02-08T01:08:17.359Z,101252.13
2023-02-08T01:13:19.346Z,101241.57
2023-02-08T01:18:21.157Z,101237.98
2023-02-08T01:23:22.840Z,101234.58
2023-02-08T01:28:24.489Z,101234.70
2023-02-08T01:33:26.259Z,101238.96
2023-02-08T01:38:28.165Z,101230.23
2023-02-08T01:43:33.132Z,101225.36
2023-02-08T01:48:40.761Z,101233.77
2023-02-08T01:53:44.051Z,101231.64
2023-02-08T01:58:52.207Z,101235.61
2023-02-08T02:03:54.572Z,101238.71
2023-02-08T02:09:07.741Z,101236.48
2023-02-08T02:14:10.416Z,101228.64
2023-02-08T02:19:37.870Z,101231.10
2023-02-08T02:24:48.616Z,101236.05
2023-02-08T02:30:12.831Z,101237.46
2023-02-08T02:35:46.444Z,101231.73
2023-02-08T02:41:15.104Z,101232.33
2023-02-08T02:46:31.961Z,101229.98
2023-02-08T02:52:58.343Z,101227.86
2023-02-08T02:58:02.481Z,101235.67
2023-02-08T03:03:04.186Z,101246.48
2023-02-08T03:08:08.594Z,101252.94
2023-02-08T03:13:17.979Z,101258.11
2023-02-08T03:18:41.281Z,101260.42
2023-02-08T03:23:51.864Z,101263.92
2023-02-08T03:29:15.428Z,101267.59
2023-02-08T03:34:27.019Z,101264.98
2023-02-08T03:39:32.850Z,101267.41
2023-02-08T03:44:41.591Z,101273.36
2023-02-08T03:49:45.459Z,101275.89
2023-02-08T03:54:56.024Z,101277.73
2023-02-08T04:00:02.296Z,101282.90
2023-02-08T04:05:14.215Z,101278.56
2023-02-08T04:10:16.471Z,101281.36
2023-02-08T04:15:18.424Z,101280.53
2023-02-08T04:20:20.449Z,101282.22
2023-02-08T04:25:22.211Z,101275.58
2023-02-08T04:30:23.792Z,101277.42
2023-02-08T04:35:25.718Z,101278.64
2023-02-08T04:40:27.372Z,101282.45
2023-02-08T04:45:32.139Z,101282.90
2023-02-08T04:50:34.185Z,101285.56
2023-02-08T04:55:35.898Z,101290.02
2023-02-08T05:00:37.636Z,101293.35
2023-02-08T05:05:39.474Z,101294.60
2023-02-08T05:10:45.569Z,101302.93
2023-02-08T05:15:47.268Z,101311.20
2023-02-08T05:20:59.744Z,101313.13
2023-02-08T05:26:06.442Z,101317.45
2023-02-08T05:31:11.726Z,101314.73
2023-02-08T05:36:13.489Z,101311.98
2023-02-08T05:41:15.929Z,101304.02
2023-02-08T05:46:17.698Z,101300.67
2023-02-08T05:51:20.852Z,101304.27
2023-02-08T05:56:22.543Z,101305.16
2023-02-08T06:01:24.164Z,101311.14
2023-02-08T06:06:26.257Z,101314.70
2023-02-08T06:11:28.095Z,101327.70
2023-02-08T06:16:29.890Z,101336.74
2023-02-08T06:21:32.010Z,101338.10
2023-02-08T06:26:34.407Z,101338.76
2023-02-08T06:31:37.004Z,101333.25
2023-02-08T06:36:38.725Z,101332.92
2023-02-08T06:41:40.340Z,101334.52
2023-02-08T06:46:42.040Z,101340.36
2023-02-08T06:51:43.760Z,101344.84
2023-02-08T06:56:45.692Z,101341.35
2023-02-08T07:01:47.361Z,101335.08
2023-02-08T07:06:49.877Z,101338.21
2023-02-08T07:11:51.596Z,101339.20
2023-02-08T07:16:56.087Z,101343.17
2023-02-08T07:22:03.459Z,101359.24
2023-02-08T07:27:06.845Z,101362.39
2023-02-08T07:32:08.630Z,101370.23
2023-02-08T07:37:10.564Z,101377.52
2023-02-08T07:42:12.215Z,101376.17
2023-02-08T07:47:20.802Z,101374.02
2023-02-08T07:52:22.557Z,101381.27
2023-02-08T07:57:24.396Z,101387.25
2023-02-08T08:02:26.138Z,101387.42
2023-02-08T08:07:28.605Z,101395.44
2023-02-08T08:12:30.285Z,101399.20
2023-02-08T08:17:31.879Z,101404.24
2023-02-08T08:22:33.574Z,101414.77
2023-02-08T08:27:35.170Z,101412.65
2023-02-08T08:32:39.970Z,101416.67
2023-02-08T08:37:41.808Z,101420.83
2023-02-08T08:42:43.547Z,101417.19
2023-02-08T08:47:45.305Z,101418.61
2023-02-08T08:52:46.928Z,101417.89
2023-02-08T08:57:48.618Z,101417.23
2023-02-08T09:02:50.296Z,101421.54
2023-02-08T09:07:51.862Z,101409.58
2023-02-08T09:12:53.538Z,101409.09
2023-02-08T09:17:55.647Z,101407.15
2023-02-08T09:22:57.417Z,101412.89
2023-02-08T09:27:59.057Z,101409.59
2023-02-08T09:33:00.740Z,101413.07
2023-02-08T09:38:04.577Z,101417.61
2023-02-08T09:43:18.340Z,101421.34
2023-02-08T09:48:28.934Z,101421.87
2023-02-08T09:53:35.953Z,101416.96
2023-02-08T09:58:41.645Z,101408.90
2023-02-08T10:03:45.210Z,101417.10
2023-02-08T10:08:50.761Z,101413.05
2023-02-08T10:14:06.448Z,101414.04
2023-02-08T10:19:27.057Z,101415.78
2023-02-08T10:24:37.706Z,101413.39
2023-02-08T10:30:10.237Z,101417.25
2023-02-08T10:35:15.927Z,101410.04
2023-02-08T10:40:32.751Z,101408.09
2023-02-08T10:46:01.340Z,101405.48
2023-02-08T10:51:03.774Z,101408.05
2023-02-08T10:56:06.700Z,101404.30
2023-02-08T11:01:09.034Z,101404.48
2023-02-08T11:06:28.666Z,101409.41
2023-02-08T11:11:40.049Z,101412.45
2023-02-08T11:16:43.377Z,101411.23
2023-02-08T11:21:51.567Z,101407.96
2023-02-08T11:26:54.022Z,101404.98
2023-02-08T11:31:57.665Z,101392.73
2023-02-08T11:37:02.683Z,101390.95
2023-02-08T11:42:05.022Z,101387.23
2023-02-08T11:47:10.025Z,101387.63
2023-02-08T11:52:23.514Z,101383.87
2023-02-08T11:57:29.927Z,101379.34
2023-02-08T12:02:38.206Z,101379.16
2023-02-08T12:07:45.622Z,101378.15
2023-02-08T12:13:17.638Z,101378.97
2023-02-08T12:18:25.598Z,101370.33
2023-02-08T12:23:33.250Z,101364.28
2023-02-08T12:28:53.663Z,101359.20
2023-02-08T12:34:17.638Z,101353.66
2023-02-08T12:39:50.879Z,101342.32
2023-02-08T12:45:01.676Z,101341.79
2023-02-08T12:50:24.426Z,101336.00
2023-02-08T12:55:34.280Z,101332.46
2023-02-08T13:00:41.283Z,101326.70
2023-02-08T13:06:01.569Z,101319.83
2023-02-08T13:11:20.221Z,101319.66
2023-02-08T13:16:27.124Z,101317.71
2023-02-08T13:21:37.969Z,101320.04
2023-02-08T13:26:40.837Z,101316.70
2023-02-08T13:31:49.349Z,101316.61
2023-02-08T13:36:59.666Z,101321.02
2023-02-08T13:42:04.541Z,101312.29
2023-02-08T13:47:08.000Z,101310.46
2023-02-08T13:52:12.044Z,101314.70
2023-02-08T13:57:50.589Z,101315.84
2023-02-08T14:03:07.734Z,101310.26
2023-02-08T14:08:21.076Z,101305.58
2023-02-08T14:13:31.734Z,101305.30
2023-02-08T14:18:33.601Z,101302.61
2023-02-08T14:23:40.474Z,101302.59
2023-02-08T14:28:48.727Z,101303.48
2023-02-08T14:33:55.167Z,101303.27
2023-02-08T14:39:21.402Z,101300.41
2023-02-08T14:44:38.660Z,101294.20
2023-02-08T14:49:44.874Z,101290.69
2023-02-08T14:55:13.733Z,101290.59
2023-02-08T15:00:45.688Z,101298.00
2023-02-08T15:06:16.856Z,101299.22
2023-02-08T15:11:25.144Z,101301.80
2023-02-08T15:16:36.386Z,101292.60
2023-02-08T15:21:39.003Z,101291.46
2023-02-08T15:26:55.117Z,101286.22
2023-02-08T15:31:56.963Z,101286.00
2023-02-08T15:36:59.693Z,101288.58
2023-02-08T15:42:02.692Z,101287.61
2023-02-08T15:47:09.648Z,101295.00
2023-02-08T15:52:20.999Z,101299.36
2023-02-08T15:57:31.883Z,101296.48
2023-02-08T16:02:35.107Z,101295.50
2023-02-08T16:07:39.530Z,101302.73
2023-02-08T16:12:41.232Z,101302.54
2023-02-08T16:17:46.342Z,101307.52
2023-02-08T16:22:57.454Z,101313.33
2023-02-08T16:27:59.224Z,101317.74
2023-02-08T16:33:07.779Z,101317.08
2023-02-08T16:38:11.137Z,101316.45
2023-02-08T16:43:22.985Z,101316.79
2023-02-08T16:48:36.158Z,101314.64
2023-02-08T16:53:42.426Z,101315.51
2023-02-08T16:58:44.396Z,101315.08
2023-02-08T17:03:46.094Z,101311.70
2023-02-08T17:08:47.792Z,101311.77
2023-02-08T17:13:49.776Z,101313.81
2023-02-08T17:18:52.272Z,101319.36
2023-02-08T17:23:53.934Z,101320.27
2023-02-08T17:28:56.561Z,101319.29
2023-02-08T17:34:04.294Z,101319.76
2023-02-08T17:39:06.333Z,101327.74
2023-02-08T17:44:08.405Z,101325.98
2023-02-08T17:49:10.119Z,101322.73
2023-02-08T17:54:12.193Z,101318.58
2023-02-08T17:59:21.035Z,101320.63
2023-02-08T18:04:22.685Z,101323.98
2023-02-08T18:09:24.532Z,101325.55
2023-02-08T18:14:26.212Z,101332.95
2023-02-08T18:19:27.986Z,101335.36
2023-02-08T18:24:31.104Z,101334.40
2023-02-08T18:29:32.767Z,101336.83
2023-02-08T18:34:34.486Z,101333.02
2023-02-08T18:39:36.121Z,101328.91
2023-02-08T18:44:38.791Z,101332.27
2023-02-08T18:49:41.035Z,101325.59
2023-02-08T18:54:42.756Z,101319.15
2023-02-08T18:59:44.316Z,101313.55
2023-02-08T19:04:46.378Z,101309.98
2023-02-08T19:09:48.359Z,101303.79
2023-02-08T19:14:51.183Z,101301.44
2023-02-08T19:19:53.209Z,101304.58
2023-02-08T19:24:55.065Z,101304.16
2023-02-08T19:29:57.082Z,101302.29
2023-02-08T19:34:59.065Z,101304.77
2023-02-08T19:40:01.002Z,101299.02
2023-02-08T19:45:02.842Z,101288.27
2023-02-08T19:50:06.073Z,101282.73
2023-02-08T19:55:07.833Z,101279.95
2023-02-08T20:00:22.558Z,101286.81
2023-02-08T20:05:25.417Z,101284.45
2023-02-08T20:10:27.153Z,101277.42
2023-02-08T20:15:28.903Z,101281.91
2023-02-08T20:20:31.608Z,101277.50
2023-02-08T20:25:34.417Z,101278.30
2023-02-08T20:30:36.146Z,101276.80
2023-02-08T20:35:38.403Z,101273.73
2023-02-08T20:40:40.162Z,101269.58
2023-02-08T20:45:44.332Z,101264.67
2023-02-08T20:50:46.361Z,101253.52
2023-02-08T20:55:48.298Z,101246.18
2023-02-08T21:00:50.282Z,101235.89
2023-02-08T21:05:53.346Z,101227.67
2023-02-08T21:10:55.003Z,101225.03
2023-02-08T21:15:56.580Z,101226.17
2023-02-08T21:20:58.327Z,101228.87
2023-02-08T21:26:01.395Z,101223.52
2023-02-08T21:31:23.955Z,101222.75
2023-02-08T21:36:25.731Z,101225.79
2023-02-08T21:41:30.669Z,101222.70
2023-02-08T21:46:32.634Z,101217.15
2023-02-08T21:51:53.965Z,101221.30
2023-02-08T21:56:57.835Z,101224.11
2023-02-08T22:01:59.545Z,101215.60
2023-02-08T22:07:02.243Z,101212.52
2023-02-08T22:12:05.716Z,101224.27
2023-02-08T22:17:13.361Z,101223.67
2023-02-08T22:22:15.006Z,101224.19
2023-02-08T22:27:16.630Z,101226.71
2023-02-08T22:32:18.340Z,101231.16
2023-02-08T22:37:20.088Z,101219.16
2023-02-08T22:42:22.001Z,101211.02
2023-02-08T22:47:24.001Z,101209.94
2023-02-08T22:52:26.259Z,101200.92
2023-02-08T22:57:28.122Z,101193.85
2023-02-08T23:02:30.073Z,101194.33
2023-02-08T23:07:32.088Z,101192.82
2023-02-08T23:12:33.982Z,101187.05
2023-02-08T23:17:35.986Z,101182.05
2023-02-08T23:22:37.914Z,101181.55
2023-02-08T23:27:39.812Z,101177.86
2023-02-08T23:32:41.943Z,101183.63
2023-02-08T23:37:43.660Z,101184.73
2023-02-08T23:42:45.441Z,101187.50
2023-02-08T23:47:47.173Z,101173.63
2023-02-08T23:52:49.036Z,101167.72
2023-02-08T23:57:50.806Z,101163.33
